sensor_id;sensor_type;location;lat;lon;timestamp;temperature;humidity
22167;DHT22;11249;52.468;13.776;2023-04-24T00:01:02;9.60;99.90
22167;DHT22;11249;52.468;13.776;2023-04-24T00:03:28;9.60;99.90
22167;DHT22;11249;52.468;13.776;2023-04-24T00:05:56;9.60;99.90
22167;DHT22;11249;52.468;13.776;2023-04-24T00:08:22;9.50;99.90
22167;DHT22;11249;52.468;13.776;2023-04-24T00:10:50;9.50;99.90
22167;DHT22;11249;52.468;13.776;2023-04-24T00:13:18;9.40;99.90
22167;DHT22;11249;52.468;13.776;2023-04-24T00:15:48;9.40;99.90
22167;DHT22;11249;52.468;13.776;2023-04-24T00:18:14;9.40;99.90
22167;DHT22;11249;52.468;13.776;2023-04-24T00:20:41;9.40;99.90
22167;DHT22;11249;52.468;13.776;2023-04-24T00:23:10;9.40;99.90
22167;DHT22;11249;52.468;13.776;2023-04-24T00:25:36;9.40;99.90
22167;DHT22;11249;52.468;13.776;2023-04-24T00:28:03;9.40;99.90
22167;DHT22;11249;52.468;13.776;2023-04-24T00:30:30;9.30;99.90
22167;DHT22;11249;52.468;13.776;2023-04-24T00:32:57;9.30;99.90
22167;DHT22;11249;52.468;13.776;2023-04-24T00:35:24;9.20;99.90
22167;DHT22;11249;52.468;13.776;2023-04-24T00:37:51;9.20;99.90
22167;DHT22;11249;52.468;13.776;2023-04-24T00:40:18;9.20;99.90
22167;DHT22;11249;52.468;13.776;2023-04-24T00:42:44;9.10;99.90
22167;DHT22;11249;52.468;13.776;2023-04-24T00:45:12;9.10;99.90
22167;DHT22;11249;52.468;13.776;2023-04-24T00:47:39;9.10;99.90
22167;DHT22;11249;52.468;13.776;2023-04-24T00:50:07;9.10;99.90
22167;DHT22;11249;52.468;13.776;2023-04-24T00:52:34;9.10;99.90
22167;DHT22;11249;52.468;13.776;2023-04-24T00:55:01;9.00;99.90
22167;DHT22;11249;52.468;13.776;2023-04-24T00:57:28;9.00;99.90
22167;DHT22;11249;52.468;13.776;2023-04-24T00:59:55;9.10;99.90
22167;DHT22;11249;52.468;13.776;2023-04-24T01:02:22;9.10;99.90
22167;DHT22;11249;52.468;13.776;2023-04-24T01:04:50;9.10;99.90
22167;DHT22;11249;52.468;13.776;2023-04-24T01:07:19;9.20;99.90
22167;DHT22;11249;52.468;13.776;2023-04-24T01:09:48;9.20;99.90
22167;DHT22;11249;52.468;13.776;2023-04-24T01:12:18;9.20;99.90
22167;DHT22;11249;52.468;13.776;2023-04-24T01:14:45;9.20;99.90
22167;DHT22;11249;52.468;13.776;2023-04-24T01:17:12;9.10;99.90
22167;DHT22;11249;52.468;13.776;2023-04-24T01:19:39;9.20;99.90
22167;DHT22;11249;52.468;13.776;2023-04-24T01:22:14;9.20;99.90
22167;DHT22;11249;52.468;13.776;2023-04-24T01:24:41;9.20;99.90
22167;DHT22;11249;52.468;13.776;2023-04-24T01:27:09;9.20;99.90
22167;DHT22;11249;52.468;13.776;2023-04-24T01:29:36;9.20;99.90
22167;DHT22;11249;52.468;13.776;2023-04-24T01:32:05;9.20;99.90
22167;DHT22;11249;52.468;13.776;2023-04-24T01:34:32;9.20;99.90
22167;DHT22;11249;52.468;13.776;2023-04-24T01:36:59;9.20;99.90
22167;DHT22;11249;52.468;13.776;2023-04-24T01:39:26;9.20;99.90
22167;DHT22;11249;52.468;13.776;2023-04-24T01:41:55;9.10;99.90
22167;DHT22;11249;52.468;13.776;2023-04-24T01:44:23;9.10;99.90
22167;DHT22;11249;52.468;13.776;2023-04-24T01:46:50;9.10;99.90
22167;DHT22;11249;52.468;13.776;2023-04-24T01:49:17;9.10;99.90
22167;DHT22;11249;52.468;13.776;2023-04-24T01:51:44;9.20;99.90
22167;DHT22;11249;52.468;13.776;2023-04-24T01:54:11;9.20;99.90
22167;DHT22;11249;52.468;13.776;2023-04-24T01:56:41;9.20;99.90
22167;DHT22;11249;52.468;13.776;2023-04-24T01:59:12;9.20;99.90
22167;DHT22;11249;52.468;13.776;2023-04-24T02:01:39;9.20;99.90
22167;DHT22;11249;52.468;13.776;2023-04-24T02:04:07;9.30;99.90
22167;DHT22;11249;52.468;13.776;2023-04-24T02:06:34;9.30;99.90
22167;DHT22;11249;52.468;13.776;2023-04-24T02:09:02;9.30;99.90
22167;DHT22;11249;52.468;13.776;2023-04-24T02:11:29;9.30;99.90
22167;DHT22;11249;52.468;13.776;2023-04-24T02:13:56;9.40;99.90
22167;DHT22;11249;52.468;13.776;2023-04-24T02:16:23;9.40;99.90
22167;DHT22;11249;52.468;13.776;2023-04-24T02:18:50;9.30;99.90
22167;DHT22;11249;52.468;13.776;2023-04-24T02:21:16;9.40;99.90
22167;DHT22;11249;52.468;13.776;2023-04-24T02:23:43;9.40;99.90
22167;DHT22;11249;52.468;13.776;2023-04-24T02:26:10;9.40;99.90
22167;DHT22;11249;52.468;13.776;2023-04-24T02:28:37;9.40;99.90
22167;DHT22;11249;52.468;13.776;2023-04-24T02:31:04;9.40;99.90
22167;DHT22;11249;52.468;13.776;2023-04-24T02:33:31;9.40;99.90
22167;DHT22;11249;52.468;13.776;2023-04-24T02:35:58;9.40;99.90
22167;DHT22;11249;52.468;13.776;2023-04-24T02:38:25;9.50;99.90
22167;DHT22;11249;52.468;13.776;2023-04-24T02:40:51;9.50;99.90
22167;DHT22;11249;52.468;13.776;2023-04-24T02:43:18;9.50;99.90
22167;DHT22;11249;52.468;13.776;2023-04-24T02:45:45;9.60;99.90
22167;DHT22;11249;52.468;13.776;2023-04-24T02:48:12;9.60;99.90
22167;DHT22;11249;52.468;13.776;2023-04-24T02:50:38;9.60;99.90
22167;DHT22;11249;52.468;13.776;2023-04-24T02:53:05;9.70;99.90
22167;DHT22;11249;52.468;13.776;2023-04-24T02:55:32;9.80;99.90
22167;DHT22;11249;52.468;13.776;2023-04-24T02:57:58;9.80;99.90
22167;DHT22;11249;52.468;13.776;2023-04-24T03:00:25;9.90;99.90
22167;DHT22;11249;52.468;13.776;2023-04-24T03:02:52;10.00;99.90
22167;DHT22;11249;52.468;13.776;2023-04-24T03:05:19;10.00;99.90
22167;DHT22;11249;52.468;13.776;2023-04-24T03:07:47;10.10;99.90
22167;DHT22;11249;52.468;13.776;2023-04-24T03:10:13;10.20;99.90
22167;DHT22;11249;52.468;13.776;2023-04-24T03:12:40;10.20;99.90
22167;DHT22;11249;52.468;13.776;2023-04-24T03:15:07;10.30;99.90
22167;DHT22;11249;52.468;13.776;2023-04-24T03:17:34;10.40;99.90
22167;DHT22;11249;52.468;13.776;2023-04-24T03:20:02;10.40;99.90
22167;DHT22;11249;52.468;13.776;2023-04-24T03:22:29;10.50;99.90
22167;DHT22;11249;52.468;13.776;2023-04-24T03:24:55;10.50;99.90
22167;DHT22;11249;52.468;13.776;2023-04-24T03:27:26;10.50;99.90
22167;DHT22;11249;52.468;13.776;2023-04-24T03:29:53;10.50;99.90
22167;DHT22;11249;52.468;13.776;2023-04-24T03:32:22;10.50;99.90
22167;DHT22;11249;52.468;13.776;2023-04-24T03:34:50;10.50;99.90
22167;DHT22;11249;52.468;13.776;2023-04-24T03:37:16;10.60;99.90
22167;DHT22;11249;52.468;13.776;2023-04-24T03:39:43;10.60;99.90
22167;DHT22;11249;52.468;13.776;2023-04-24T03:42:10;10.60;99.90
22167;DHT22;11249;52.468;13.776;2023-04-24T03:44:37;10.60;99.90
22167;DHT22;11249;52.468;13.776;2023-04-24T03:47:04;10.60;99.90
22167;DHT22;11249;52.468;13.776;2023-04-24T03:49:31;10.60;99.90
22167;DHT22;11249;52.468;13.776;2023-04-24T03:51:58;10.60;99.90
22167;DHT22;11249;52.468;13.776;2023-04-24T03:54:24;10.60;99.90
22167;DHT22;11249;52.468;13.776;2023-04-24T03:56:51;10.60;99.90
22167;DHT22;11249;52.468;13.776;2023-04-24T03:59:18;10.70;99.90
22167;DHT22;11249;52.468;13.776;2023-04-24T04:01:44;10.70;99.90
22167;DHT22;11249;52.468;13.776;2023-04-24T04:04:11;10.60;99.90
22167;DHT22;11249;52.468;13.776;2023-04-24T04:06:39;10.70;99.90
22167;DHT22;11249;52.468;13.776;2023-04-24T04:09:05;10.70;99.90
22167;DHT22;11249;52.468;13.776;2023-04-24T04:11:33;10.70;99.90
22167;DHT22;11249;52.468;13.776;2023-04-24T04:14:00;10.60;99.90
22167;DHT22;11249;52.468;13.776;2023-04-24T04:16:26;10.70;99.90
22167;DHT22;11249;52.468;13.776;2023-04-24T04:18:53;10.70;99.90
22167;DHT22;11249;52.468;13.776;2023-04-24T04:21:20;10.70;99.90
22167;DHT22;11249;52.468;13.776;2023-04-24T04:23:47;10.70;99.90
22167;DHT22;11249;52.468;13.776;2023-04-24T04:26:14;10.70;99.90
22167;DHT22;11249;52.468;13.776;2023-04-24T04:28:41;10.70;99.90
22167;DHT22;11249;52.468;13.776;2023-04-24T04:31:08;10.70;99.90
22167;DHT22;11249;52.468;13.776;2023-04-24T04:33:34;10.70;99.90
22167;DHT22;11249;52.468;13.776;2023-04-24T04:36:02;10.80;99.90
22167;DHT22;11249;52.468;13.776;2023-04-24T04:38:30;10.80;99.90
22167;DHT22;11249;52.468;13.776;2023-04-24T04:40:56;10.80;99.90
22167;DHT22;11249;52.468;13.776;2023-04-24T04:43:24;10.80;99.90
22167;DHT22;11249;52.468;13.776;2023-04-24T04:45:51;10.80;99.90
22167;DHT22;11249;52.468;13.776;2023-04-24T04:48:18;10.80;99.90
22167;DHT22;11249;52.468;13.776;2023-04-24T04:50:45;10.90;99.90
22167;DHT22;11249;52.468;13.776;2023-04-24T04:53:12;10.90;99.90
22167;DHT22;11249;52.468;13.776;2023-04-24T04:55:38;10.90;99.90
22167;DHT22;11249;52.468;13.776;2023-04-24T04:58:05;11.00;99.90
22167;DHT22;11249;52.468;13.776;2023-04-24T05:00:32;11.00;99.90
22167;DHT22;11249;52.468;13.776;2023-04-24T05:03:02;11.10;99.90
22167;DHT22;11249;52.468;13.776;2023-04-24T05:05:46;11.20;99.90
22167;DHT22;11249;52.468;13.776;2023-04-24T05:08:13;11.20;99.90
22167;DHT22;11249;52.468;13.776;2023-04-24T05:10:53;11.30;99.90
22167;DHT22;11249;52.468;13.776;2023-04-24T05:13:19;11.30;99.90
22167;DHT22;11249;52.468;13.776;2023-04-24T05:16:01;11.40;99.90
22167;DHT22;11249;52.468;13.776;2023-04-24T05:18:28;11.50;99.90
22167;DHT22;11249;52.468;13.776;2023-04-24T05:20:54;11.50;99.90
22167;DHT22;11249;52.468;13.776;2023-04-24T05:23:22;11.60;99.90
22167;DHT22;11249;52.468;13.776;2023-04-24T05:25:48;11.70;99.90
22167;DHT22;11249;52.468;13.776;2023-04-24T05:28:15;11.70;99.90
22167;DHT22;11249;52.468;13.776;2023-04-24T05:30:42;11.80;99.90
22167;DHT22;11249;52.468;13.776;2023-04-24T05:33:08;11.90;99.90
22167;DHT22;11249;52.468;13.776;2023-04-24T05:35:36;11.90;99.90
22167;DHT22;11249;52.468;13.776;2023-04-24T05:38:03;12.00;99.90
22167;DHT22;11249;52.468;13.776;2023-04-24T05:40:29;12.00;99.90
22167;DHT22;11249;52.468;13.776;2023-04-24T05:42:56;12.00;99.90
22167;DHT22;11249;52.468;13.776;2023-04-24T05:45:23;12.00;99.90
22167;DHT22;11249;52.468;13.776;2023-04-24T05:47:49;12.00;99.90
22167;DHT22;11249;52.468;13.776;2023-04-24T05:50:18;12.10;99.90
22167;DHT22;11249;52.468;13.776;2023-04-24T05:52:45;12.10;99.90
22167;DHT22;11249;52.468;13.776;2023-04-24T05:55:12;12.20;99.90
22167;DHT22;11249;52.468;13.776;2023-04-24T05:57:39;12.30;99.90
22167;DHT22;11249;52.468;13.776;2023-04-24T06:00:07;12.30;99.90
22167;DHT22;11249;52.468;13.776;2023-04-24T06:02:34;12.40;99.90
22167;DHT22;11249;52.468;13.776;2023-04-24T06:05:01;12.40;99.90
22167;DHT22;11249;52.468;13.776;2023-04-24T06:07:28;12.50;99.90
22167;DHT22;11249;52.468;13.776;2023-04-24T06:09:55;12.50;99.90
22167;DHT22;11249;52.468;13.776;2023-04-24T06:12:23;12.60;99.90
22167;DHT22;11249;52.468;13.776;2023-04-24T06:14:49;12.60;99.90
22167;DHT22;11249;52.468;13.776;2023-04-24T06:17:16;12.70;99.90
22167;DHT22;11249;52.468;13.776;2023-04-24T06:19:43;12.80;99.90
22167;DHT22;11249;52.468;13.776;2023-04-24T06:22:10;12.80;99.90
22167;DHT22;11249;52.468;13.776;2023-04-24T06:24:37;12.80;99.90
22167;DHT22;11249;52.468;13.776;2023-04-24T06:27:04;12.80;99.90
22167;DHT22;11249;52.468;13.776;2023-04-24T06:29:30;12.90;99.90
22167;DHT22;11249;52.468;13.776;2023-04-24T06:31:57;13.00;99.90
22167;DHT22;11249;52.468;13.776;2023-04-24T06:34:24;13.10;99.90
22167;DHT22;11249;52.468;13.776;2023-04-24T06:36:52;13.20;99.90
22167;DHT22;11249;52.468;13.776;2023-04-24T06:39:18;13.20;99.90
22167;DHT22;11249;52.468;13.776;2023-04-24T06:41:45;13.30;99.90
22167;DHT22;11249;52.468;13.776;2023-04-24T06:44:11;13.30;99.90
22167;DHT22;11249;52.468;13.776;2023-04-24T06:46:38;13.40;99.90
22167;DHT22;11249;52.468;13.776;2023-04-24T06:49:07;13.40;99.90
22167;DHT22;11249;52.468;13.776;2023-04-24T06:51:33;13.40;99.90
22167;DHT22;11249;52.468;13.776;2023-04-24T06:54:00;13.40;99.90
22167;DHT22;11249;52.468;13.776;2023-04-24T06:56:28;13.30;99.90
22167;DHT22;11249;52.468;13.776;2023-04-24T06:58:56;13.40;99.90
22167;DHT22;11249;52.468;13.776;2023-04-24T07:01:22;13.30;99.90
22167;DHT22;11249;52.468;13.776;2023-04-24T07:03:49;13.30;99.90
22167;DHT22;11249;52.468;13.776;2023-04-24T07:06:16;13.40;99.90
22167;DHT22;11249;52.468;13.776;2023-04-24T07:08:45;13.40;99.90
22167;DHT22;11249;52.468;13.776;2023-04-24T07:11:12;13.50;99.90
22167;DHT22;11249;52.468;13.776;2023-04-24T07:13:38;13.50;99.90
22167;DHT22;11249;52.468;13.776;2023-04-24T07:16:08;13.60;99.90
22167;DHT22;11249;52.468;13.776;2023-04-24T07:18:36;13.70;99.90
22167;DHT22;11249;52.468;13.776;2023-04-24T07:21:03;13.70;99.90
22167;DHT22;11249;52.468;13.776;2023-04-24T07:23:30;13.80;99.90
22167;DHT22;11249;52.468;13.776;2023-04-24T07:25:57;13.90;99.90
22167;DHT22;11249;52.468;13.776;2023-04-24T07:28:24;14.00;99.90
22167;DHT22;11249;52.468;13.776;2023-04-24T07:30:51;14.10;99.90
22167;DHT22;11249;52.468;13.776;2023-04-24T07:33:20;14.20;99.90
22167;DHT22;11249;52.468;13.776;2023-04-24T07:35:47;14.20;99.90
22167;DHT22;11249;52.468;13.776;2023-04-24T07:38:14;14.20;99.90
22167;DHT22;11249;52.468;13.776;2023-04-24T07:40:41;14.40;99.90
22167;DHT22;11249;52.468;13.776;2023-04-24T07:43:08;14.40;99.90
22167;DHT22;11249;52.468;13.776;2023-04-24T07:45:34;14.50;99.90
22167;DHT22;11249;52.468;13.776;2023-04-24T07:48:04;14.60;99.90
22167;DHT22;11249;52.468;13.776;2023-04-24T07:50:31;14.70;99.90
22167;DHT22;11249;52.468;13.776;2023-04-24T07:52:58;14.80;99.90
22167;DHT22;11249;52.468;13.776;2023-04-24T07:55:24;14.80;99.90
22167;DHT22;11249;52.468;13.776;2023-04-24T07:57:53;14.90;99.90
22167;DHT22;11249;52.468;13.776;2023-04-24T08:00:20;15.10;99.90
22167;DHT22;11249;52.468;13.776;2023-04-24T08:02:47;15.30;99.90
22167;DHT22;11249;52.468;13.776;2023-04-24T08:05:14;15.30;99.90
22167;DHT22;11249;52.468;13.776;2023-04-24T08:07:41;15.30;99.90
22167;DHT22;11249;52.468;13.776;2023-04-24T08:10:12;15.40;99.90
22167;DHT22;11249;52.468;13.776;2023-04-24T08:12:41;15.40;99.90
22167;DHT22;11249;52.468;13.776;2023-04-24T08:15:08;15.40;99.90
22167;DHT22;11249;52.468;13.776;2023-04-24T08:17:35;15.50;99.90
22167;DHT22;11249;52.468;13.776;2023-04-24T08:20:05;15.60;99.90
22167;DHT22;11249;52.468;13.776;2023-04-24T08:22:36;15.70;99.90
22167;DHT22;11249;52.468;13.776;2023-04-24T08:25:04;15.90;99.90
22167;DHT22;11249;52.468;13.776;2023-04-24T08:27:31;16.00;99.90
22167;DHT22;11249;52.468;13.776;2023-04-24T08:29:57;16.20;99.90
22167;DHT22;11249;52.468;13.776;2023-04-24T08:32:25;16.20;99.90
22167;DHT22;11249;52.468;13.776;2023-04-24T08:34:58;16.30;99.90
22167;DHT22;11249;52.468;13.776;2023-04-24T08:37:25;16.40;99.90
22167;DHT22;11249;52.468;13.776;2023-04-24T08:39:53;16.50;99.90
22167;DHT22;11249;52.468;13.776;2023-04-24T08:42:20;16.30;99.90
22167;DHT22;11249;52.468;13.776;2023-04-24T08:44:49;16.30;99.90
22167;DHT22;11249;52.468;13.776;2023-04-24T08:47:16;16.30;99.90
22167;DHT22;11249;52.468;13.776;2023-04-24T08:49:43;16.20;99.90
22167;DHT22;11249;52.468;13.776;2023-04-24T08:52:10;16.20;99.90
22167;DHT22;11249;52.468;13.776;2023-04-24T08:54:39;16.10;99.90
22167;DHT22;11249;52.468;13.776;2023-04-24T08:57:07;16.10;99.90
22167;DHT22;11249;52.468;13.776;2023-04-24T08:59:36;16.20;99.90
22167;DHT22;11249;52.468;13.776;2023-04-24T09:02:03;16.30;99.90
22167;DHT22;11249;52.468;13.776;2023-04-24T09:04:33;16.20;99.90
22167;DHT22;11249;52.468;13.776;2023-04-24T09:07:03;16.30;99.90
22167;DHT22;11249;52.468;13.776;2023-04-24T09:09:32;16.50;99.90
22167;DHT22;11249;52.468;13.776;2023-04-24T09:12:00;16.70;99.90
22167;DHT22;11249;52.468;13.776;2023-04-24T09:14:27;16.90;99.90
22167;DHT22;11249;52.468;13.776;2023-04-24T09:16:54;17.10;99.90
22167;DHT22;11249;52.468;13.776;2023-04-24T09:19:21;17.10;99.90
22167;DHT22;11249;52.468;13.776;2023-04-24T09:21:48;17.00;99.90
22167;DHT22;11249;52.468;13.776;2023-04-24T09:24:19;16.70;99.90
22167;DHT22;11249;52.468;13.776;2023-04-24T09:26:56;16.60;99.90
22167;DHT22;11249;52.468;13.776;2023-04-24T09:29:28;16.50;99.90
22167;DHT22;11249;52.468;13.776;2023-04-24T09:31:54;16.60;99.90
22167;DHT22;11249;52.468;13.776;2023-04-24T09:34:26;16.80;99.90
22167;DHT22;11249;52.468;13.776;2023-04-24T09:36:53;17.00;99.90
22167;DHT22;11249;52.468;13.776;2023-04-24T09:39:21;17.20;99.90
22167;DHT22;11249;52.468;13.776;2023-04-24T09:41:55;17.20;99.90
22167;DHT22;11249;52.468;13.776;2023-04-24T09:44:27;17.30;99.90
22167;DHT22;11249;52.468;13.776;2023-04-24T09:46:56;17.40;99.90
22167;DHT22;11249;52.468;13.776;2023-04-24T09:51:51;17.40;99.90
22167;DHT22;11249;52.468;13.776;2023-04-24T09:54:20;17.40;99.90
22167;DHT22;11249;52.468;13.776;2023-04-24T09:56:49;17.40;99.90
22167;DHT22;11249;52.468;13.776;2023-04-24T09:59:18;17.50;99.90
22167;DHT22;11249;52.468;13.776;2023-04-24T10:01:45;17.60;99.90
22167;DHT22;11249;52.468;13.776;2023-04-24T10:06:44;17.60;99.90
22167;DHT22;11249;52.468;13.776;2023-04-24T10:09:12;17.60;99.90
22167;DHT22;11249;52.468;13.776;2023-04-24T10:11:42;17.40;99.90
22167;DHT22;11249;52.468;13.776;2023-04-24T10:14:12;17.30;99.90
22167;DHT22;11249;52.468;13.776;2023-04-24T10:16:40;17.10;99.90
22167;DHT22;11249;52.468;13.776;2023-04-24T10:19:07;16.90;99.90
22167;DHT22;11249;52.468;13.776;2023-04-24T10:21:35;16.70;99.90
22167;DHT22;11249;52.468;13.776;2023-04-24T10:24:04;16.60;99.90
22167;DHT22;11249;52.468;13.776;2023-04-24T10:26:34;16.50;99.90
22167;DHT22;11249;52.468;13.776;2023-04-24T10:29:01;16.50;99.90
22167;DHT22;11249;52.468;13.776;2023-04-24T10:31:31;16.60;99.90
22167;DHT22;11249;52.468;13.776;2023-04-24T10:33:59;16.70;99.90
22167;DHT22;11249;52.468;13.776;2023-04-24T10:36:29;16.90;99.90
22167;DHT22;11249;52.468;13.776;2023-04-24T10:39:01;17.00;99.90
22167;DHT22;11249;52.468;13.776;2023-04-24T10:41:30;17.20;99.90
22167;DHT22;11249;52.468;13.776;2023-04-24T10:44:12;17.40;99.90
22167;DHT22;11249;52.468;13.776;2023-04-24T10:46:43;17.30;99.90
22167;DHT22;11249;52.468;13.776;2023-04-24T10:49:11;17.20;99.90
22167;DHT22;11249;52.468;13.776;2023-04-24T10:51:49;17.10;99.90
22167;DHT22;11249;52.468;13.776;2023-04-24T10:54:33;17.10;99.90
22167;DHT22;11249;52.468;13.776;2023-04-24T10:59:50;17.40;99.90
22167;DHT22;11249;52.468;13.776;2023-04-24T11:02:18;17.50;99.90
22167;DHT22;11249;52.468;13.776;2023-04-24T11:04:45;17.90;99.90
22167;DHT22;11249;52.468;13.776;2023-04-24T11:07:13;18.50;99.90
22167;DHT22;11249;52.468;13.776;2023-04-24T11:09:42;19.00;99.90
22167;DHT22;11249;52.468;13.776;2023-04-24T11:12:11;19.40;99.90
22167;DHT22;11249;52.468;13.776;2023-04-24T11:17:35;19.90;99.90
22167;DHT22;11249;52.468;13.776;2023-04-24T11:22:55;19.80;99.90
22167;DHT22;11249;52.468;13.776;2023-04-24T11:25:24;19.80;99.90
22167;DHT22;11249;52.468;13.776;2023-04-24T11:28:03;19.90;99.90
22167;DHT22;11249;52.468;13.776;2023-04-24T11:30:31;20.20;99.90
22167;DHT22;11249;52.468;13.776;2023-04-24T11:33:03;20.40;99.90
22167;DHT22;11249;52.468;13.776;2023-04-24T11:35:35;20.70;99.90
22167;DHT22;11249;52.468;13.776;2023-04-24T11:38:03;20.50;99.90
22167;DHT22;11249;52.468;13.776;2023-04-24T11:40:34;20.90;99.90
22167;DHT22;11249;52.468;13.776;2023-04-24T11:43:01;21.10;99.90
22167;DHT22;11249;52.468;13.776;2023-04-24T11:45:33;21.10;99.90
22167;DHT22;11249;52.468;13.776;2023-04-24T11:48:00;21.00;99.90
22167;DHT22;11249;52.468;13.776;2023-04-24T11:50:29;20.30;99.90
22167;DHT22;11249;52.468;13.776;2023-04-24T11:52:56;20.10;99.90
22167;DHT22;11249;52.468;13.776;2023-04-24T11:58:00;19.50;99.90
22167;DHT22;11249;52.468;13.776;2023-04-24T12:00:32;19.30;99.90
22167;DHT22;11249;52.468;13.776;2023-04-24T12:05:32;19.10;99.90
22167;DHT22;11249;52.468;13.776;2023-04-24T12:07:59;18.80;99.90
22167;DHT22;11249;52.468;13.776;2023-04-24T12:10:28;18.30;99.90
22167;DHT22;11249;52.468;13.776;2023-04-24T12:12:56;17.70;99.90
22167;DHT22;11249;52.468;13.776;2023-04-24T12:15:24;17.10;99.90
22167;DHT22;11249;52.468;13.776;2023-04-24T12:17:52;16.60;99.90
22167;DHT22;11249;52.468;13.776;2023-04-24T12:20:28;16.70;99.90
22167;DHT22;11249;52.468;13.776;2023-04-24T12:23:00;16.80;99.90
22167;DHT22;11249;52.468;13.776;2023-04-24T12:25:32;17.20;99.90
22167;DHT22;11249;52.468;13.776;2023-04-24T12:30:34;17.80;99.90
22167;DHT22;11249;52.468;13.776;2023-04-24T12:33:02;18.10;99.90
22167;DHT22;11249;52.468;13.776;2023-04-24T12:35:32;18.10;99.90
22167;DHT22;11249;52.468;13.776;2023-04-24T12:38:08;18.20;99.90
22167;DHT22;11249;52.468;13.776;2023-04-24T12:40:35;18.30;99.90
22167;DHT22;11249;52.468;13.776;2023-04-24T12:43:12;18.40;99.90
22167;DHT22;11249;52.468;13.776;2023-04-24T12:45:39;18.60;99.90
22167;DHT22;11249;52.468;13.776;2023-04-24T12:48:05;18.60;99.90
22167;DHT22;11249;52.468;13.776;2023-04-24T12:50:32;18.30;99.90
22167;DHT22;11249;52.468;13.776;2023-04-24T12:53:00;18.30;99.90
22167;DHT22;11249;52.468;13.776;2023-04-24T12:55:26;18.20;99.90
22167;DHT22;11249;52.468;13.776;2023-04-24T12:57:53;18.10;99.90
22167;DHT22;11249;52.468;13.776;2023-04-24T13:00:21;18.50;99.90
22167;DHT22;11249;52.468;13.776;2023-04-24T13:02:48;18.70;99.90
22167;DHT22;11249;52.468;13.776;2023-04-24T13:05:15;18.90;99.90
22167;DHT22;11249;52.468;13.776;2023-04-24T13:07:42;18.90;99.90
22167;DHT22;11249;52.468;13.776;2023-04-24T13:10:09;18.90;99.90
22167;DHT22;11249;52.468;13.776;2023-04-24T13:12:36;19.00;99.90
22167;DHT22;11249;52.468;13.776;2023-04-24T13:15:03;18.90;99.90
22167;DHT22;11249;52.468;13.776;2023-04-24T13:17:38;18.90;99.90
22167;DHT22;11249;52.468;13.776;2023-04-24T13:20:05;19.00;99.90
22167;DHT22;11249;52.468;13.776;2023-04-24T13:22:32;19.00;99.90
22167;DHT22;11249;52.468;13.776;2023-04-24T13:24:59;19.10;99.90
22167;DHT22;11249;52.468;13.776;2023-04-24T13:27:26;19.40;99.90
22167;DHT22;11249;52.468;13.776;2023-04-24T13:29:52;20.10;99.90
22167;DHT22;11249;52.468;13.776;2023-04-24T13:32:19;20.80;99.90
22167;DHT22;11249;52.468;13.776;2023-04-24T13:34:46;21.00;99.90
22167;DHT22;11249;52.468;13.776;2023-04-24T13:37:13;20.50;99.90
22167;DHT22;11249;52.468;13.776;2023-04-24T13:39:40;19.90;99.90
22167;DHT22;11249;52.468;13.776;2023-04-24T13:42:08;20.00;99.90
22167;DHT22;11249;52.468;13.776;2023-04-24T13:44:35;20.70;99.90
22167;DHT22;11249;52.468;13.776;2023-04-24T13:47:02;21.10;99.90
22167;DHT22;11249;52.468;13.776;2023-04-24T13:49:29;20.90;99.90
22167;DHT22;11249;52.468;13.776;2023-04-24T13:51:56;20.70;99.90
22167;DHT22;11249;52.468;13.776;2023-04-24T13:54:23;20.90;99.90
22167;DHT22;11249;52.468;13.776;2023-04-24T13:56:52;21.30;99.90
22167;DHT22;11249;52.468;13.776;2023-04-24T13:59:22;21.80;99.90
22167;DHT22;11249;52.468;13.776;2023-04-24T14:01:49;21.70;99.90
22167;DHT22;11249;52.468;13.776;2023-04-24T14:04:16;20.70;99.90
22167;DHT22;11249;52.468;13.776;2023-04-24T14:06:43;19.90;99.90
22167;DHT22;11249;52.468;13.776;2023-04-24T14:09:10;19.50;99.90
22167;DHT22;11249;52.468;13.776;2023-04-24T14:11:37;19.50;99.90
22167;DHT22;11249;52.468;13.776;2023-04-24T14:14:04;19.40;99.90
22167;DHT22;11249;52.468;13.776;2023-04-24T14:16:31;19.50;99.90
22167;DHT22;11249;52.468;13.776;2023-04-24T14:18:58;19.70;99.90
22167;DHT22;11249;52.468;13.776;2023-04-24T14:21:25;20.20;99.90
22167;DHT22;11249;52.468;13.776;2023-04-24T14:23:52;20.90;99.90
22167;DHT22;11249;52.468;13.776;2023-04-24T14:26:19;21.60;99.90
22167;DHT22;11249;52.468;13.776;2023-04-24T14:28:46;21.40;99.90
22167;DHT22;11249;52.468;13.776;2023-04-24T14:31:12;21.30;99.90
22167;DHT22;11249;52.468;13.776;2023-04-24T14:33:39;21.70;99.90
22167;DHT22;11249;52.468;13.776;2023-04-24T14:36:06;21.80;99.90
22167;DHT22;11249;52.468;13.776;2023-04-24T14:38:34;21.30;99.90
22167;DHT22;11249;52.468;13.776;2023-04-24T14:41:01;21.70;99.90
22167;DHT22;11249;52.468;13.776;2023-04-24T14:43:31;20.90;99.90
22167;DHT22;11249;52.468;13.776;2023-04-24T14:45:59;20.00;99.90
22167;DHT22;11249;52.468;13.776;2023-04-24T14:48:25;19.70;99.90
22167;DHT22;11249;52.468;13.776;2023-04-24T14:50:52;19.70;99.90
22167;DHT22;11249;52.468;13.776;2023-04-24T14:53:19;19.80;99.90
22167;DHT22;11249;52.468;13.776;2023-04-24T14:55:45;20.00;99.90
22167;DHT22;11249;52.468;13.776;2023-04-24T14:58:12;19.90;99.90
22167;DHT22;11249;52.468;13.776;2023-04-24T15:00:39;20.10;99.90
22167;DHT22;11249;52.468;13.776;2023-04-24T15:03:06;20.20;99.90
22167;DHT22;11249;52.468;13.776;2023-04-24T15:05:34;20.20;99.90
22167;DHT22;11249;52.468;13.776;2023-04-24T15:08:01;20.40;99.90
22167;DHT22;11249;52.468;13.776;2023-04-24T15:10:28;20.40;99.90
22167;DHT22;11249;52.468;13.776;2023-04-24T15:12:56;20.60;99.90
22167;DHT22;11249;52.468;13.776;2023-04-24T15:15:23;20.50;99.90
22167;DHT22;11249;52.468;13.776;2023-04-24T15:17:49;20.60;99.90
22167;DHT22;11249;52.468;13.776;2023-04-24T15:20:16;20.00;99.90
22167;DHT22;11249;52.468;13.776;2023-04-24T15:22:44;19.90;99.90
22167;DHT22;11249;52.468;13.776;2023-04-24T15:25:11;20.00;99.90
22167;DHT22;11249;52.468;13.776;2023-04-24T15:27:44;19.80;99.90
22167;DHT22;11249;52.468;13.776;2023-04-24T15:30:12;20.00;99.90
22167;DHT22;11249;52.468;13.776;2023-04-24T15:32:39;19.70;99.90
22167;DHT22;11249;52.468;13.776;2023-04-24T15:35:06;19.90;99.90
22167;DHT22;11249;52.468;13.776;2023-04-24T15:37:36;20.20;99.90
22167;DHT22;11249;52.468;13.776;2023-04-24T15:40:03;20.50;99.90
22167;DHT22;11249;52.468;13.776;2023-04-24T15:42:32;20.90;99.90
22167;DHT22;11249;52.468;13.776;2023-04-24T15:44:58;20.40;99.90